sensor_id;sensor_type;location;lat;lon;timestamp;P1;durP1;ratioP1;P2;durP2;ratioP2
48285;SDS011;34102;47.716;10.296;2022-11-15T04:31:08;2.58;;;0.90;;
48285;SDS011;34102;47.716;10.296;2022-11-15T04:33:34;3.15;;;0.88;;
48285;SDS011;34102;47.716;10.296;2022-11-15T04:35:59;2.65;;;0.93;;
48285;SDS011;34102;47.716;10.296;2022-11-15T04:38:43;2.20;;;1.13;;
48285;SDS011;34102;47.716;10.296;2022-11-15T04:41:08;2.08;;;1.00;;
48285;SDS011;34102;47.716;10.296;2022-11-15T04:43:33;1.83;;;0.93;;
48285;SDS011;34102;47.716;10.296;2022-11-15T04:45:59;2.33;;;1.30;;
48285;SDS011;34102;47.716;10.296;2022-11-15T04:48:24;2.25;;;1.25;;
48285;SDS011;34102;47.716;10.296;2022-11-15T04:50:49;4.10;;;0.90;;
48285;SDS011;34102;47.716;10.296;2022-11-15T04:53:14;1.48;;;0.90;;
48285;SDS011;34102;47.716;10.296;2022-11-15T04:55:40;2.42;;;1.02;;
48285;SDS011;34102;47.716;10.296;2022-11-15T04:58:08;1.75;;;1.00;;
48285;SDS011;34102;47.716;10.296;2022-11-15T05:00:34;5.75;;;1.00;;
48285;SDS011;34102;47.716;10.296;2022-11-15T05:03:00;2.00;;;1.10;;
48285;SDS011;34102;47.716;10.296;2022-11-15T05:05:44;3.50;;;0.85;;
48285;SDS011;34102;47.716;10.296;2022-11-15T05:08:09;2.05;;;0.73;;
48285;SDS011;34102;47.716;10.296;2022-11-15T05:10:34;2.83;;;0.80;;
48285;SDS011;34102;47.716;10.296;2022-11-15T05:12:59;5.45;;;1.83;;
48285;SDS011;34102;47.716;10.296;2022-11-15T05:15:24;2.42;;;0.68;;
48285;SDS011;34102;47.716;10.296;2022-11-15T05:17:50;3.05;;;0.90;;
48285;SDS011;34102;47.716;10.296;2022-11-15T05:20:15;2.17;;;0.88;;
48285;SDS011;34102;47.716;10.296;2022-11-15T05:22:40;2.65;;;0.95;;
48285;SDS011;34102;47.716;10.296;2022-11-15T05:25:06;2.72;;;1.00;;
48285;SDS011;34102;47.716;10.296;2022-11-15T05:27:32;2.63;;;1.10;;
48285;SDS011;34102;47.716;10.296;2022-11-15T05:29:57;3.63;;;1.25;;
48285;SDS011;34102;47.716;10.296;2022-11-15T05:32:22;2.17;;;0.98;;
48285;SDS011;34102;47.716;10.296;2022-11-15T05:34:48;2.75;;;1.10;;
48285;SDS011;34102;47.716;10.296;2022-11-15T05:37:13;2.55;;;1.00;;
48285;SDS011;34102;47.716;10.296;2022-11-15T05:39:39;2.75;;;1.63;;
48285;SDS011;34102;47.716;10.296;2022-11-15T05:42:14;3.97;;;1.83;;
48285;SDS011;34102;47.716;10.296;2022-11-15T05:44:41;2.97;;;1.50;;
48285;SDS011;34102;47.716;10.296;2022-11-15T05:47:07;3.25;;;2.13;;
48285;SDS011;34102;47.716;10.296;2022-11-15T05:49:34;2.25;;;1.20;;
48285;SDS011;34102;47.716;10.296;2022-11-15T05:52:02;4.00;;;1.70;;
48285;SDS011;34102;47.716;10.296;2022-11-15T05:54:28;2.78;;;1.63;;
48285;SDS011;34102;47.716;10.296;2022-11-15T05:56:53;3.28;;;1.55;;
48285;SDS011;34102;47.716;10.296;2022-11-15T05:59:19;5.18;;;1.77;;
48285;SDS011;34102;47.716;10.296;2022-11-15T06:01:45;5.18;;;1.48;;
48285;SDS011;34102;47.716;10.296;2022-11-15T06:04:10;2.08;;;1.30;;
48285;SDS011;34102;47.716;10.296;2022-11-15T06:06:35;3.08;;;1.30;;
48285;SDS011;34102;47.716;10.296;2022-11-15T06:09:01;3.97;;;1.38;;
48285;SDS011;34102;47.716;10.296;2022-11-15T06:11:27;3.22;;;1.63;;
48285;SDS011;34102;47.716;10.296;2022-11-15T06:13:52;8.82;;;2.85;;
48285;SDS011;34102;47.716;10.296;2022-11-15T06:16:17;2.95;;;1.60;;
48285;SDS011;34102;47.716;10.296;2022-11-15T06:18:42;6.90;;;1.45;;
48285;SDS011;34102;47.716;10.296;2022-11-15T06:21:08;8.77;;;1.58;;
48285;SDS011;34102;47.716;10.296;2022-11-15T06:23:34;5.18;;;1.83;;
48285;SDS011;34102;47.716;10.296;2022-11-15T06:26:00;10.05;;;3.67;;
48285;SDS011;34102;47.716;10.296;2022-11-15T06:28:28;13.48;;;5.60;;
48285;SDS011;34102;47.716;10.296;2022-11-15T06:30:54;15.02;;;6.10;;
48285;SDS011;34102;47.716;10.296;2022-11-15T06:33:19;12.73;;;5.93;;
48285;SDS011;34102;47.716;10.296;2022-11-15T06:35:44;20.45;;;8.68;;
48285;SDS011;34102;47.716;10.296;2022-11-15T06:38:10;12.30;;;4.10;;
48285;SDS011;34102;47.716;10.296;2022-11-15T06:40:35;7.97;;;3.65;;
48285;SDS011;34102;47.716;10.296;2022-11-15T06:43:01;11.10;;;3.55;;
48285;SDS011;34102;47.716;10.296;2022-11-15T06:45:27;10.55;;;3.95;;
48285;SDS011;34102;47.716;10.296;2022-11-15T06:47:52;8.38;;;3.88;;
48285;SDS011;34102;47.716;10.296;2022-11-15T06:50:17;15.38;;;6.25;;
48285;SDS011;34102;47.716;10.296;2022-11-15T06:52:43;9.40;;;4.30;;
48285;SDS011;34102;47.716;10.296;2022-11-15T06:55:08;26.67;;;11.57;;
48285;SDS011;34102;47.716;10.296;2022-11-15T06:57:33;10.32;;;4.30;;
48285;SDS011;34102;47.716;10.296;2022-11-15T06:59:59;21.40;;;9.38;;
48285;SDS011;34102;47.716;10.296;2022-11-15T07:02:24;21.40;;;10.65;;
48285;SDS011;34102;47.716;10.296;2022-11-15T07:04:49;23.08;;;10.30;;
48285;SDS011;34102;47.716;10.296;2022-11-15T07:07:15;16.53;;;7.27;;
48285;SDS011;34102;47.716;10.296;2022-11-15T07:09:40;10.75;;;5.03;;
48285;SDS011;34102;47.716;10.296;2022-11-15T07:12:05;10.05;;;4.45;;
48285;SDS011;34102;47.716;10.296;2022-11-15T07:14:30;20.55;;;8.60;;
48285;SDS011;34102;47.716;10.296;2022-11-15T07:16:56;17.98;;;7.25;;
48285;SDS011;34102;47.716;10.296;2022-11-15T07:19:21;15.23;;;6.25;;
48285;SDS011;34102;47.716;10.296;2022-11-15T07:21:46;10.00;;;5.25;;
48285;SDS011;34102;47.716;10.296;2022-11-15T07:24:11;8.75;;;3.75;;
48285;SDS011;34102;47.716;10.296;2022-11-15T07:26:37;9.85;;;4.78;;
48285;SDS011;34102;47.716;10.296;2022-11-15T07:29:02;8.10;;;4.25;;
48285;SDS011;34102;47.716;10.296;2022-11-15T07:31:27;11.43;;;5.85;;
48285;SDS011;34102;47.716;10.296;2022-11-15T07:33:52;6.95;;;3.17;;
48285;SDS011;34102;47.716;10.296;2022-11-15T07:36:18;7.30;;;3.53;;
48285;SDS011;34102;47.716;10.296;2022-11-15T07:38:43;7.53;;;3.33;;
48285;SDS011;34102;47.716;10.296;2022-11-15T07:41:08;8.90;;;3.72;;
48285;SDS011;34102;47.716;10.296;2022-11-15T07:43:33;6.68;;;3.50;;
48285;SDS011;34102;47.716;10.296;2022-11-15T07:45:59;8.75;;;3.70;;
48285;SDS011;34102;47.716;10.296;2022-11-15T07:48:28;8.35;;;3.15;;
48285;SDS011;34102;47.716;10.296;2022-11-15T07:50:54;7.15;;;3.28;;
48285;SDS011;34102;47.716;10.296;2022-11-15T07:53:19;7.22;;;3.20;;
48285;SDS011;34102;47.716;10.296;2022-11-15T07:55:44;6.97;;;2.80;;
48285;SDS011;34102;47.716;10.296;2022-11-15T07:58:10;4.97;;;2.58;;
48285;SDS011;34102;47.716;10.296;2022-11-15T08:00:36;4.20;;;2.25;;
48285;SDS011;34102;47.716;10.296;2022-11-15T08:03:09;3.60;;;2.15;;
48285;SDS011;34102;47.716;10.296;2022-11-15T08:05:35;4.03;;;1.60;;
48285;SDS011;34102;47.716;10.296;2022-11-15T08:08:01;3.03;;;1.75;;
48285;SDS011;34102;47.716;10.296;2022-11-15T08:10:26;3.30;;;1.65;;
48285;SDS011;34102;47.716;10.296;2022-11-15T08:15:23;8.32;;;2.20;;
48285;SDS011;34102;47.716;10.296;2022-11-15T08:17:52;6.90;;;2.03;;
48285;SDS011;34102;47.716;10.296;2022-11-15T08:20:18;6.90;;;2.17;;
48285;SDS011;34102;47.716;10.296;2022-11-15T08:22:44;2.83;;;1.75;;
48285;SDS011;34102;47.716;10.296;2022-11-15T08:25:09;5.07;;;2.25;;
48285;SDS011;34102;47.716;10.296;2022-11-15T08:27:36;2.75;;;1.52;;
48285;SDS011;34102;47.716;10.296;2022-11-15T08:30:01;5.20;;;1.87;;
48285;SDS011;34102;47.716;10.296;2022-11-15T08:32:26;4.10;;;1.67;;
48285;SDS011;34102;47.716;10.296;2022-11-15T08:34:52;5.63;;;1.77;;
48285;SDS011;34102;47.716;10.296;2022-11-15T08:37:17;3.57;;;2.03;;
48285;SDS011;34102;47.716;10.296;2022-11-15T08:39:42;5.60;;;2.17;;
48285;SDS011;34102;47.716;10.296;2022-11-15T08:42:07;4.20;;;1.52;;
48285;SDS011;34102;47.716;10.296;2022-11-15T08:44:33;3.40;;;1.23;;
48285;SDS011;34102;47.716;10.296;2022-11-15T08:46:58;2.92;;;1.50;;
48285;SDS011;34102;47.716;10.296;2022-11-15T08:49:23;5.60;;;2.58;;
48285;SDS011;34102;47.716;10.296;2022-11-15T08:51:48;2.95;;;1.52;;
48285;SDS011;34102;47.716;10.296;2022-11-15T08:54:14;7.15;;;1.80;;
48285;SDS011;34102;47.716;10.296;2022-11-15T08:56:39;4.05;;;1.75;;
48285;SDS011;34102;47.716;10.296;2022-11-15T08:59:04;3.38;;;1.85;;
48285;SDS011;34102;47.716;10.296;2022-11-15T09:01:29;5.90;;;2.03;;
48285;SDS011;34102;47.716;10.296;2022-11-15T09:03:55;3.90;;;2.13;;
48285;SDS011;34102;47.716;10.296;2022-11-15T09:06:20;5.25;;;2.42;;
48285;SDS011;34102;47.716;10.296;2022-11-15T09:08:45;3.35;;;1.90;;
48285;SDS011;34102;47.716;10.296;2022-11-15T09:11:10;3.95;;;2.20;;
48285;SDS011;34102;47.716;10.296;2022-11-15T09:13:36;2.90;;;1.92;;
48285;SDS011;34102;47.716;10.296;2022-11-15T09:16:02;3.78;;;1.80;;
48285;SDS011;34102;47.716;10.296;2022-11-15T09:18:27;4.95;;;2.00;;
48285;SDS011;34102;47.716;10.296;2022-11-15T09:20:56;5.55;;;2.38;;
48285;SDS011;34102;47.716;10.296;2022-11-15T09:23:22;3.05;;;1.65;;
48285;SDS011;34102;47.716;10.296;2022-11-15T09:25:47;3.95;;;1.58;;
48285;SDS011;34102;47.716;10.296;2022-11-15T09:28:13;6.67;;;2.33;;
48285;SDS011;34102;47.716;10.296;2022-11-15T09:30:38;9.55;;;2.00;;
48285;SDS011;34102;47.716;10.296;2022-11-15T09:33:10;6.80;;;1.90;;
48285;SDS011;34102;47.716;10.296;2022-11-15T09:35:36;4.15;;;2.15;;
48285;SDS011;34102;47.716;10.296;2022-11-15T09:38:01;3.72;;;1.92;;
48285;SDS011;34102;47.716;10.296;2022-11-15T09:40:27;3.47;;;1.85;;
48285;SDS011;34102;47.716;10.296;2022-11-15T09:43:09;8.95;;;2.33;;
48285;SDS011;34102;47.716;10.296;2022-11-15T09:50:45;3.65;;;1.40;;
48285;SDS011;34102;47.716;10.296;2022-11-15T09:53:13;3.17;;;1.65;;
48285;SDS011;34102;47.716;10.296;2022-11-15T09:56:00;2.80;;;1.92;;
48285;SDS011;34102;47.716;10.296;2022-11-15T10:00:53;5.40;;;1.77;;
48285;SDS011;34102;47.716;10.296;2022-11-15T10:05:47;6.27;;;1.80;;
48285;SDS011;34102;47.716;10.296;2022-11-15T10:08:25;3.17;;;1.50;;
48285;SDS011;34102;47.716;10.296;2022-11-15T10:10:54;5.13;;;1.73;;
48285;SDS011;34102;47.716;10.296;2022-11-15T10:13:24;3.67;;;1.67;;
48285;SDS011;34102;47.716;10.296;2022-11-15T10:15:50;3.65;;;1.90;;
48285;SDS011;34102;47.716;10.296;2022-11-15T10:18:17;4.45;;;1.52;;
48285;SDS011;34102;47.716;10.296;2022-11-15T10:20:52;4.50;;;1.67;;
48285;SDS011;34102;47.716;10.296;2022-11-15T10:23:21;3.92;;;2.05;;
48285;SDS011;34102;47.716;10.296;2022-11-15T10:25:46;5.50;;;2.05;;
48285;SDS011;34102;47.716;10.296;2022-11-15T10:28:16;5.75;;;1.85;;
48285;SDS011;34102;47.716;10.296;2022-11-15T10:30:46;4.30;;;1.75;;
48285;SDS011;34102;47.716;10.296;2022-11-15T10:33:13;6.05;;;1.98;;
48285;SDS011;34102;47.716;10.296;2022-11-15T10:35:42;5.95;;;1.83;;
48285;SDS011;34102;47.716;10.296;2022-11-15T10:38:11;4.57;;;1.42;;
48285;SDS011;34102;47.716;10.296;2022-11-15T10:40:36;4.15;;;1.75;;
48285;SDS011;34102;47.716;10.296;2022-11-15T10:43:20;3.65;;;1.70;;
48285;SDS011;34102;47.716;10.296;2022-11-15T10:45:46;6.57;;;1.80;;
48285;SDS011;34102;47.716;10.296;2022-11-15T10:50:37;2.90;;;1.50;;
48285;SDS011;34102;47.716;10.296;2022-11-15T10:53:03;3.40;;;1.45;;
48285;SDS011;34102;47.716;10.296;2022-11-15T10:55:30;9.90;;;1.77;;
48285;SDS011;34102;47.716;10.296;2022-11-15T10:58:01;8.00;;;2.45;;
48285;SDS011;34102;47.716;10.296;2022-11-15T11:00:29;5.57;;;2.33;;
48285;SDS011;34102;47.716;10.296;2022-11-15T11:03:00;10.68;;;2.58;;
48285;SDS011;34102;47.716;10.296;2022-11-15T11:05:33;5.53;;;2.15;;
48285;SDS011;34102;47.716;10.296;2022-11-15T11:08:00;3.80;;;2.25;;
48285;SDS011;34102;47.716;10.296;2022-11-15T11:10:26;4.68;;;2.58;;
48285;SDS011;34102;47.716;10.296;2022-11-15T11:12:52;3.30;;;1.50;;
48285;SDS011;34102;47.716;10.296;2022-11-15T11:15:17;3.70;;;1.90;;
48285;SDS011;34102;47.716;10.296;2022-11-15T11:20:35;3.85;;;1.30;;
48285;SDS011;34102;47.716;10.296;2022-11-15T11:33:50;4.18;;;2.17;;
48285;SDS011;34102;47.716;10.296;2022-11-15T11:36:25;4.28;;;1.40;;
48285;SDS011;34102;47.716;10.296;2022-11-15T11:44:39;5.65;;;1.98;;
48285;SDS011;34102;47.716;10.296;2022-11-15T11:47:10;3.22;;;2.00;;
48285;SDS011;34102;47.716;10.296;2022-11-15T11:52:15;5.13;;;2.40;;
48285;SDS011;34102;47.716;10.296;2022-11-15T11:54:54;3.78;;;1.95;;
48285;SDS011;34102;47.716;10.296;2022-11-15T12:00:14;2.72;;;2.00;;
48285;SDS011;34102;47.716;10.296;2022-11-15T12:02:41;3.20;;;2.00;;
48285;SDS011;34102;47.716;10.296;2022-11-15T12:08:15;2.92;;;1.88;;
48285;SDS011;34102;47.716;10.296;2022-11-15T12:10:44;2.77;;;1.70;;
48285;SDS011;34102;47.716;10.296;2022-11-15T12:13:15;6.75;;;1.92;;
48285;SDS011;34102;47.716;10.296;2022-11-15T12:15:42;2.85;;;1.60;;
48285;SDS011;34102;47.716;10.296;2022-11-15T12:18:08;3.28;;;1.80;;
48285;SDS011;34102;47.716;10.296;2022-11-15T12:20:37;6.38;;;1.75;;
48285;SDS011;34102;47.716;10.296;2022-11-15T12:23:05;4.05;;;1.50;;
48285;SDS011;34102;47.716;10.296;2022-11-15T12:30:38;3.20;;;2.08;;
48285;SDS011;34102;47.716;10.296;2022-11-15T12:33:16;4.25;;;1.70;;
48285;SDS011;34102;47.716;10.296;2022-11-15T12:36:00;3.33;;;1.90;;
48285;SDS011;34102;47.716;10.296;2022-11-15T12:41:17;4.40;;;2.10;;
48285;SDS011;34102;47.716;10.296;2022-11-15T12:43:43;3.55;;;1.70;;
48285;SDS011;34102;47.716;10.296;2022-11-15T12:46:18;6.05;;;2.08;;
48285;SDS011;34102;47.716;10.296;2022-11-15T12:48:46;3.03;;;2.20;;
48285;SDS011;34102;47.716;10.296;2022-11-15T12:51:12;5.22;;;1.65;;
48285;SDS011;34102;47.716;10.296;2022-11-15T12:53:38;3.33;;;1.60;;
48285;SDS011;34102;47.716;10.296;2022-11-15T13:09:49;2.75;;;1.63;;
48285;SDS011;34102;47.716;10.296;2022-11-15T13:14:34;5.67;;;1.73;;
48285;SDS011;34102;47.716;10.296;2022-11-15T13:22:17;3.30;;;2.00;;
48285;SDS011;34102;47.716;10.296;2022-11-15T13:25:01;5.63;;;2.60;;
48285;SDS011;34102;47.716;10.296;2022-11-15T13:27:29;4.93;;;2.30;;
48285;SDS011;34102;47.716;10.296;2022-11-15T13:29:54;2.17;;;1.67;;
48285;SDS011;34102;47.716;10.296;2022-11-15T13:32:20;3.67;;;2.08;;
48285;SDS011;34102;47.716;10.296;2022-11-15T13:34:46;4.05;;;2.25;;
48285;SDS011;34102;47.716;10.296;2022-11-15T13:37:33;3.55;;;1.90;;
48285;SDS011;34102;47.716;10.296;2022-11-15T13:40:16;4.10;;;2.00;;
48285;SDS011;34102;47.716;10.296;2022-11-15T13:42:43;2.65;;;2.05;;
48285;SDS011;34102;47.716;10.296;2022-11-15T13:45:12;2.78;;;2.20;;
48285;SDS011;34102;47.716;10.296;2022-11-15T13:47:38;4.80;;;2.40;;
48285;SDS011;34102;47.716;10.296;2022-11-15T13:50:03;4.60;;;2.50;;
48285;SDS011;34102;47.716;10.296;2022-11-15T13:52:31;4.53;;;2.35;;
48285;SDS011;34102;47.716;10.296;2022-11-15T13:54:58;4.90;;;2.70;;
48285;SDS011;34102;47.716;10.296;2022-11-15T13:57:25;4.80;;;2.38;;
48285;SDS011;34102;47.716;10.296;2022-11-15T13:59:53;5.72;;;2.95;;
48285;SDS011;34102;47.716;10.296;2022-11-15T14:02:20;4.72;;;2.65;;
48285;SDS011;34102;47.716;10.296;2022-11-15T14:04:49;5.75;;;2.85;;
48285;SDS011;34102;47.716;10.296;2022-11-15T14:07:16;6.30;;;2.92;;
48285;SDS011;34102;47.716;10.296;2022-11-15T14:09:42;5.80;;;2.72;;
48285;SDS011;34102;47.716;10.296;2022-11-15T14:12:24;5.30;;;2.80;;
48285;SDS011;34102;47.716;10.296;2022-11-15T14:14:49;5.43;;;2.53;;
48285;SDS011;34102;47.716;10.296;2022-11-15T14:17:32;3.65;;;2.67;;
48285;SDS011;34102;47.716;10.296;2022-11-15T14:19:58;3.97;;;2.70;;
48285;SDS011;34102;47.716;10.296;2022-11-15T14:22:24;4.75;;;2.78;;
48285;SDS011;34102;47.716;10.296;2022-11-15T14:27:37;2.90;;;2.40;;
48285;SDS011;34102;47.716;10.296;2022-11-15T14:30:02;4.55;;;2.63;;
48285;SDS011;34102;47.716;10.296;2022-11-15T14:32:28;4.95;;;2.22;;
48285;SDS011;34102;47.716;10.296;2022-11-15T14:35:02;4.15;;;2.58;;
48285;SDS011;34102;47.716;10.296;2022-11-15T14:37:31;5.68;;;2.80;;
48285;SDS011;34102;47.716;10.296;2022-11-15T14:39:59;4.03;;;2.78;;
48285;SDS011;34102;47.716;10.296;2022-11-15T14:42:24;5.45;;;3.05;;
48285;SDS011;34102;47.716;10.296;2022-11-15T14:44:50;6.90;;;4.53;;
48285;SDS011;34102;47.716;10.296;2022-11-15T14:47:15;5.50;;;4.03;;
48285;SDS011;34102;47.716;10.296;2022-11-15T14:49:40;5.25;;;2.72;;
48285;SDS011;34102;47.716;10.296;2022-11-15T14:54:50;7.22;;;3.33;;
48285;SDS011;34102;47.716;10.296;2022-11-15T14:57:15;4.78;;;2.85;;
48285;SDS011;34102;47.716;10.296;2022-11-15T14:59:41;5.93;;;2.90;;
48285;SDS011;34102;47.716;10.296;2022-11-15T15:02:39;4.50;;;3.40;;
48285;SDS011;34102;47.716;10.296;2022-11-15T15:04:57;3.88;;;2.85;;
48285;SDS011;34102;47.716;10.296;2022-11-15T15:07:26;4.38;;;3.05;;
48285;SDS011;34102;47.716;10.296;2022-11-15T15:09:51;8.30;;;3.20;;
48285;SDS011;34102;47.716;10.296;2022-11-15T15:12:18;6.45;;;3.55;;
48285;SDS011;34102;47.716;10.296;2022-11-15T15:14:45;8.93;;;4.07;;
48285;SDS011;34102;47.716;10.296;2022-11-15T15:17:11;4.90;;;2.92;;
48285;SDS011;34102;47.716;10.296;2022-11-15T15:19:37;4.68;;;3.40;;
48285;SDS011;34102;47.716;10.296;2022-11-15T15:22:02;5.03;;;3.33;;
48285;SDS011;34102;47.716;10.296;2022-11-15T15:24:27;5.78;;;3.42;;
48285;SDS011;34102;47.716;10.296;2022-11-15T15:26:55;5.85;;;3.50;;
48285;SDS011;34102;47.716;10.296;2022-11-15T15:29:21;4.77;;;3.20;;
48285;SDS011;34102;47.716;10.296;2022-11-15T15:31:46;5.13;;;3.60;;
48285;SDS011;34102;47.716;10.296;2022-11-15T15:34:11;6.47;;;3.10;;
48285;SDS011;34102;47.716;10.296;2022-11-15T15:36:36;5.85;;;3.85;;
48285;SDS011;34102;47.716;10.296;2022-11-15T15:39:02;4.13;;;3.00;;
48285;SDS011;34102;47.716;10.296;2022-11-15T15:41:27;12.02;;;5.03;;
48285;SDS011;34102;47.716;10.296;2022-11-15T15:43:52;6.10;;;3.92;;
48285;SDS011;34102;47.716;10.296;2022-11-15T15:46:18;7.88;;;3.53;;
48285;SDS011;34102;47.716;10.296;2022-11-15T15:48:44;7.65;;;3.97;;
48285;SDS011;34102;47.716;10.296;2022-11-15T15:51:10;12.88;;;6.45;;
48285;SDS011;34102;47.716;10.296;2022-11-15T15:53:35;4.55;;;3.25;;
48285;SDS011;34102;47.716;10.296;2022-11-15T15:56:00;4.95;;;3.30;;
48285;SDS011;34102;47.716;10.296;2022-11-15T15:58:26;5.45;;;3.15;;
48285;SDS011;34102;47.716;10.296;2022-11-15T16:00:51;5.38;;;2.72;;
48285;SDS011;34102;47.716;10.296;2022-11-15T16:03:17;5.30;;;2.80;;
48285;SDS011;34102;47.716;10.296;2022-11-15T16:05:42;4.63;;;3.20;;
48285;SDS011;34102;47.716;10.296;2022-11-15T16:08:21;5.45;;;3.40;;
48285;SDS011;34102;47.716;10.296;2022-11-15T16:10:46;5.93;;;2.90;;
48285;SDS011;34102;47.716;10.296;2022-11-15T16:13:12;4.88;;;3.08;;
48285;SDS011;34102;47.716;10.296;2022-11-15T16:15:37;3.50;;;2.73;;
48285;SDS011;34102;47.716;10.296;2022-11-15T16:18:03;5.38;;;3.15;;
48285;SDS011;34102;47.716;10.296;2022-11-15T16:22:57;5.70;;;2.92;;
48285;SDS011;34102;47.716;10.296;2022-11-15T16:25:23;16.15;;;8.43;;
48285;SDS011;34102;47.716;10.296;2022-11-15T16:28:10;7.68;;;3.90;;
48285;SDS011;34102;47.716;10.296;2022-11-15T16:30:37;5.95;;;3.33;;
48285;SDS011;34102;47.716;10.296;2022-11-15T16:33:02;7.57;;;3.30;;
48285;SDS011;34102;47.716;10.296;2022-11-15T16:35:28;9.13;;;4.78;;
48285;SDS011;34102;47.716;10.296;2022-11-15T16:37:53;8.60;;;3.70;;
48285;SDS011;34102;47.716;10.296;2022-11-15T16:40:22;11.70;;;7.93;;
48285;SDS011;34102;47.716;10.296;2022-11-15T16:42:48;33.67;;;18.98;;
48285;SDS011;34102;47.716;10.296;2022-11-15T16:45:13;17.42;;;8.50;;
48285;SDS011;34102;47.716;10.296;2022-11-15T16:47:39;10.98;;;5.55;;
48285;SDS011;34102;47.716;10.296;2022-11-15T16:50:04;8.45;;;4.82;;
48285;SDS011;34102;47.716;10.296;2022-11-15T16:52:29;11.00;;;4.55;;
48285;SDS011;34102;47.716;10.296;2022-11-15T16:54:55;11.23;;;5.20;;
48285;SDS011;34102;47.716;10.296;2022-11-15T16:57:20;8.15;;;4.95;;
48285;SDS011;34102;47.716;10.296;2022-11-15T16:59:45;9.33;;;5.57;;
48285;SDS011;34102;47.716;10.296;2022-11-15T17:02:11;8.27;;;4.97;;
48285;SDS011;34102;47.716;10.296;2022-11-15T17:04:36;11.63;;;6.50;;
48285;SDS011;34102;47.716;10.296;2022-11-15T17:07:01;14.70;;;8.20;;
48285;SDS011;34102;47.716;10.296;2022-11-15T17:09:26;13.27;;;7.60;;
48285;SDS011;34102;47.716;10.296;2022-11-15T17:11:52;13.82;;;7.05;;
48285;SDS011;34102;47.716;10.296;2022-11-15T17:14:17;14.82;;;8.80;;
48285;SDS011;34102;47.716;10.296;2022-11-15T17:16:43;12.38;;;8.23;;
48285;SDS011;34102;47.716;10.296;2022-11-15T17:19:14;12.45;;;8.57;;
48285;SDS011;34102;47.716;10.296;2022-11-15T17:21:40;12.27;;;8.68;;
48285;SDS011;34102;47.716;10.296;2022-11-15T17:24:06;14.20;;;9.23;;
48285;SDS011;34102;47.716;10.296;2022-11-15T17:26:31;12.50;;;8.23;;
48285;SDS011;34102;47.716;10.296;2022-11-15T17:28:57;13.10;;;9.35;;
48285;SDS011;34102;47.716;10.296;2022-11-15T17:31:24;16.90;;;11.15;;
48285;SDS011;34102;47.716;10.296;2022-11-15T17:33:50;17.02;;;10.45;;
48285;SDS011;34102;47.716;10.296;2022-11-15T17:36:15;11.53;;;8.77;;
48285;SDS011;34102;47.716;10.296;2022-11-15T17:38:41;10.48;;;7.13;;
48285;SDS011;34102;47.716;10.296;2022-11-15T17:41:08;8.70;;;6.10;;
48285;SDS011;34102;47.716;10.296;2022-11-15T17:43:35;8.05;;;5.65;;
48285;SDS011;34102;47.716;10.296;2022-11-15T17:46:05;6.35;;;5.10;;
48285;SDS011;34102;47.716;10.296;2022-11-15T17:48:30;12.38;;;7.97;;
48285;SDS011;34102;47.716;10.296;2022-11-15T17:50:56;8.38;;;5.72;;
48285;SDS011;34102;47.716;10.296;2022-11-15T17:53:22;8.25;;;5.88;;
48285;SDS011;34102;47.716;10.296;2022-11-15T17:55:47;10.70;;;6.25;;
48285;SDS011;34102;47.716;10.296;2022-11-15T17:58:13;10.23;;;6.47;;
48285;SDS011;34102;47.716;10.296;2022-11-15T18:00:38;27.45;;;9.65;;
48285;SDS011;34102;47.716;10.296;2022-11-15T18:03:03;23.47;;;9.50;;
48285;SDS011;34102;47.716;10.296;2022-11-15T18:05:28;30.95;;;10.32;;
48285;SDS011;34102;47.716;10.296;2022-11-15T18:07:53;10.80;;;6.27;;
48285;SDS011;34102;47.716;10.296;2022-11-15T18:10:19;40.70;;;11.67;;
48285;SDS011;34102;47.716;10.296;2022-11-15T18:12:44;33.03;;;10.57;;
48285;SDS011;34102;47.716;10.296;2022-11-15T18:15:09;11.50;;;6.90;;
48285;SDS011;34102;47.716;10.296;2022-11-15T18:17:35;9.38;;;5.38;;
48285;SDS011;34102;47.716;10.296;2022-11-15T18:20:01;13.25;;;6.50;;
48285;SDS011;34102;47.716;10.296;2022-11-15T18:22:26;7.80;;;5.30;;
48285;SDS011;34102;47.716;10.296;2022-11-15T18:24:51;8.33;;;6.27;;
48285;SDS011;34102;47.716;10.296;2022-11-15T18:27:17;14.13;;;11.18;;
48285;SDS011;34102;47.716;10.296;2022-11-15T18:29:42;16.73;;;13.00;;
48285;SDS011;34102;47.716;10.296;2022-11-15T18:32:08;15.27;;;10.85;;
48285;SDS011;34102;47.716;10.296;2022-11-15T18:34:39;13.75;;;10.48;;
48285;SDS011;34102;47.716;10.296;2022-11-15T18:37:05;9.38;;;6.20;;
48285;SDS011;34102;47.716;10.296;2022-11-15T18:39:30;9.45;;;6.45;;
48285;SDS011;34102;47.716;10.296;2022-11-15T18:41:56;9.52;;;5.47;;
48285;SDS011;34102;47.716;10.296;2022-11-15T18:44:21;13.32;;;6.35;;
48285;SDS011;34102;47.716;10.296;2022-11-15T18:46:46;7.95;;;5.43;;
48285;SDS011;34102;47.716;10.296;2022-11-15T18:49:12;11.18;;;5.72;;
48285;SDS011;34102;47.716;10.296;2022-11-15T18:51:38;7.78;;;5.70;;
48285;SDS011;34102;47.716;10.296;2022-11-15T18:54:08;12.40;;;6.00;;
48285;SDS011;34102;47.716;10.296;2022-11-15T18:56:33;10.07;;;6.28;;
48285;SDS011;34102;47.716;10.296;2022-11-15T18:58:59;10.43;;;6.03;;
48285;SDS011;34102;47.716;10.296;2022-11-15T19:01:26;10.27;;;5.40;;
48285;SDS011;34102;47.716;10.296;2022-11-15T19:03:53;10.23;;;5.93;;
48285;SDS011;34102;47.716;10.296;2022-11-15T19:06:20;10.40;;;5.32;;
48285;SDS011;34102;47.716;10.296;2022-11-15T19:08:46;9.52;;;6.20;;
48285;SDS011;34102;47.716;10.296;2022-11-15T19:11:13;8.85;;;5.03;;
48285;SDS011;34102;47.716;10.296;2022-11-15T19:13:39;9.63;;;4.60;;
48285;SDS011;34102;47.716;10.296;2022-11-15T19:16:04;7.30;;;4.15;;
48285;SDS011;34102;47.716;10.296;2022-11-15T19:18:30;7.85;;;4.60;;
48285;SDS011;34102;47.716;10.296;2022-11-15T19:20:56;8.50;;;4.80;;
48285;SDS011;34102;47.716;10.296;2022-11-15T19:23:26;8.05;;;5.07;;
48285;SDS011;34102;47.716;10.296;2022-11-15T19:25:55;7.82;;;4.60;;
48285;SDS011;34102;47.716;10.296;2022-11-15T19:28:21;8.48;;;4.93;;
48285;SDS011;34102;47.716;10.296;2022-11-15T19:30:46;13.48;;;8.80;;
48285;SDS011;34102;47.716;10.296;2022-11-15T19:33:11;9.40;;;4.70;;
48285;SDS011;34102;47.716;10.296;2022-11-15T19:35:36;8.82;;;4.82;;
48285;SDS011;34102;47.716;10.296;2022-11-15T19:38:02;7.15;;;4.95;;
48285;SDS011;34102;47.716;10.296;2022-11-15T19:40:27;10.83;;;5.27;;
48285;SDS011;34102;47.716;10.296;2022-11-15T19:42:52;12.27;;;5.97;;
48285;SDS011;34102;47.716;10.296;2022-11-15T19:45:17;12.98;;;5.80;;
48285;SDS011;34102;47.716;10.296;2022-11-15T19:47:43;14.13;;;5.60;;
48285;SDS011;34102;47.716;10.296;2022-11-15T19:50:08;9.05;;;4.93;;
48285;SDS011;34102;47.716;10.296;2022-11-15T19:52:33;11.02;;;5.22;;
48285;SDS011;34102;47.716;10.296;2022-11-15T19:54:58;9.87;;;5.20;;
48285;SDS011;34102;47.716;10.296;2022-11-15T19:57:24;9.40;;;5.33;;
48285;SDS011;34102;47.716;10.296;2022-11-15T19:59:49;12.48;;;7.50;;
48285;SDS011;34102;47.716;10.296;2022-11-15T20:02:14;10.63;;;5.80;;
48285;SDS011;34102;47.716;10.296;2022-11-15T20:04:39;9.40;;;5.97;;
48285;SDS011;34102;47.716;10.296;2022-11-15T20:07:05;10.90;;;5.88;;
48285;SDS011;34102;47.716;10.296;2022-11-15T20:09:30;13.10;;;5.70;;
48285;SDS011;34102;47.716;10.296;2022-11-15T20:11:56;9.57;;;4.90;;
48285;SDS011;34102;47.716;10.296;2022-11-15T20:14:22;8.75;;;4.38;;
48285;SDS011;34102;47.716;10.296;2022-11-15T20:16:48;7.35;;;4.57;;
48285;SDS011;34102;47.716;10.296;2022-11-15T20:19:13;7.38;;;4.47;;